createdAt,value
2018-09-02T00:00:29.363Z,11.10
2018-09-02T00:03:04.773Z,11.00
2018-09-02T00:05:39.978Z,11.10
2018-09-02T00:08:14.323Z,11.00
2018-09-02T00:10:48.549Z,11.10
2018-09-02T00:13:22.741Z,11.10
2018-09-02T00:15:56.937Z,11.10
2018-09-02T00:18:31.102Z,11.00
2018-09-02T00:21:05.334Z,11.00
2018-09-02T00:23:39.503Z,11.00
2018-09-02T00:26:13.694Z,11.00
2018-09-02T00:28:47.883Z,11.00
2018-09-02T00:31:22.116Z,11.00
2018-09-02T00:33:56.399Z,10.90
2018-09-02T00:36:31.751Z,10.90
2018-09-02T00:39:07.899Z,10.90
2018-09-02T00:41:42.076Z,11.00
2018-09-02T00:44:16.208Z,11.00
2018-09-02T00:46:50.412Z,10.90
2018-09-02T00:49:25.651Z,10.90
2018-09-02T00:52:00.823Z,10.90
2018-09-02T00:54:35.009Z,10.90
2018-09-02T00:57:09.210Z,10.80
2018-09-02T00:59:43.459Z,10.70
2018-09-02T01:02:17.664Z,10.70
2018-09-02T01:04:51.796Z,10.70
2018-09-02T01:07:25.972Z,10.70
2018-09-02T01:10:00.131Z,10.70
2018-09-02T01:12:34.553Z,10.70
2018-09-02T01:15:08.739Z,10.70
2018-09-02T01:17:42.958Z,10.70
2018-09-02T01:20:17.220Z,10.60
2018-09-02T01:22:51.442Z,10.60
2018-09-02T01:25:25.628Z,10.50
2018-09-02T01:27:59.832Z,10.50
2018-09-02T01:30:35.007Z,10.50
2018-09-02T01:33:09.952Z,10.50
2018-09-02T01:35:44.119Z,10.50
2018-09-02T01:38:18.304Z,10.50
2018-09-02T01:40:52.452Z,10.50
2018-09-02T01:43:27.737Z,10.40
2018-09-02T01:46:01.886Z,10.30
2018-09-02T01:48:37.091Z,10.40
2018-09-02T01:51:12.356Z,10.40
2018-09-02T01:53:46.531Z,10.30
2018-09-02T01:56:20.697Z,10.30
2018-09-02T01:58:54.893Z,10.30
2018-09-02T02:01:29.088Z,10.30
2018-09-02T02:04:03.401Z,10.20
2018-09-02T02:06:37.568Z,10.20
2018-09-02T02:09:12.109Z,10.30
2018-09-02T02:11:46.543Z,10.20
2018-09-02T02:14:21.802Z,10.20
2018-09-02T02:16:56.026Z,10.10
2018-09-02T02:19:30.782Z,10.10
2018-09-02T02:22:06.053Z,10.10
2018-09-02T02:24:40.318Z,10.10
2018-09-02T02:27:14.546Z,10.10
2018-09-02T02:29:48.815Z,10.10
2018-09-02T02:32:22.992Z,10.10
2018-09-02T02:34:57.241Z,10.10
2018-09-02T02:37:31.438Z,10.10
2018-09-02T02:40:06.682Z,10.00
2018-09-02T02:42:40.906Z,10.00
2018-09-02T02:45:15.095Z,10.00
2018-09-02T02:47:50.324Z,10.10
2018-09-02T02:50:24.533Z,10.00
2018-09-02T02:53:05.735Z,10.00
2018-09-02T02:55:39.960Z,9.90
2018-09-02T02:58:15.242Z,9.80
2018-09-02T03:00:49.470Z,9.90
2018-09-02T03:03:23.729Z,9.90
2018-09-02T03:05:57.933Z,9.90
2018-09-02T03:08:33.144Z,9.90
2018-09-02T03:11:07.346Z,9.90
2018-09-02T03:13:41.619Z,9.90
2018-09-02T03:16:15.824Z,9.90
2018-09-02T03:18:50.035Z,9.90
2018-09-02T03:21:25.265Z,9.80
2018-09-02T03:23:59.435Z,9.90
2018-09-02T03:26:34.747Z,9.90
2018-09-02T03:29:08.964Z,9.90
2018-09-02T03:31:44.184Z,9.90
2018-09-02T03:34:19.447Z,9.90
2018-09-02T03:36:54.608Z,9.80
2018-09-02T03:39:28.838Z,9.80
2018-09-02T03:42:03.106Z,9.90
2018-09-02T03:44:37.323Z,9.90
2018-09-02T03:47:11.566Z,9.90
2018-09-02T03:49:45.804Z,9.90
2018-09-02T03:52:20.035Z,9.80
2018-09-02T03:54:54.221Z,9.80
2018-09-02T03:57:28.442Z,9.80
2018-09-02T04:00:02.670Z,9.80
2018-09-02T04:02:36.886Z,9.80
2018-09-02T04:05:11.111Z,9.80
2018-09-02T04:07:45.339Z,9.80
2018-09-02T04:10:19.641Z,9.90
2018-09-02T04:12:54.957Z,10.00
2018-09-02T04:15:29.149Z,10.00
2018-09-02T04:18:03.364Z,10.10
2018-09-02T04:20:37.804Z,10.10
2018-09-02T04:23:12.030Z,10.10
2018-09-02T04:25:46.248Z,10.10
2018-09-02T04:28:20.480Z,10.10
2018-09-02T04:30:54.715Z,10.10
2018-09-02T04:33:28.958Z,10.10
2018-09-02T04:36:03.147Z,10.20
2018-09-02T04:38:38.415Z,10.20
2018-09-02T04:41:12.627Z,10.20
2018-09-02T04:43:46.902Z,10.10
2018-09-02T04:46:22.146Z,10.20
2018-09-02T04:48:56.394Z,10.10
2018-09-02T04:51:30.600Z,10.20
2018-09-02T04:54:04.828Z,10.30
2018-09-02T04:56:40.096Z,10.30
2018-09-02T04:59:15.350Z,10.30
2018-09-02T05:01:49.555Z,10.30
2018-09-02T05:04:23.764Z,10.50
2018-09-02T05:06:57.989Z,10.60
2018-09-02T05:09:32.260Z,10.70
2018-09-02T05:12:06.555Z,10.80
2018-09-02T05:14:41.790Z,10.90
2018-09-02T05:17:15.971Z,11.00
2018-09-02T05:19:50.248Z,11.10
2018-09-02T05:22:24.551Z,11.20
2018-09-02T05:24:59.768Z,11.40
2018-09-02T05:27:34.599Z,11.50
2018-09-02T05:30:09.735Z,11.80
2018-09-02T05:32:44.001Z,11.90
2018-09-02T05:35:19.806Z,12.10
2018-09-02T05:37:54.629Z,12.30
2018-09-02T05:40:29.426Z,12.50
2018-09-02T05:43:04.223Z,12.60
2018-09-02T05:45:39.024Z,12.70
2018-09-02T05:48:14.794Z,12.80
2018-09-02T05:50:49.580Z,12.80
2018-09-02T05:53:24.367Z,12.90
2018-09-02T05:55:59.117Z,12.80
2018-09-02T05:58:34.003Z,12.90
2018-09-02T06:01:08.777Z,12.90
2018-09-02T06:03:43.531Z,13.00
2018-09-02T06:06:18.324Z,13.20
2018-09-02T06:08:54.094Z,13.20
2018-09-02T06:11:28.872Z,13.20
2018-09-02T06:14:04.228Z,13.40
2018-09-02T06:16:39.059Z,13.50
2018-09-02T06:19:17.906Z,13.60
2018-09-02T06:21:52.814Z,13.70
2018-09-02T06:24:27.560Z,13.80
2018-09-02T06:27:02.329Z,13.90
2018-09-02T06:29:37.139Z,14.10
2018-09-02T06:32:12.937Z,14.20
2018-09-02T06:34:47.751Z,14.50
2018-09-02T06:37:22.543Z,15.10
2018-09-02T06:39:57.495Z,16.80
2018-09-02T06:42:32.216Z,18.50
2018-09-02T06:45:08.013Z,20.10
2018-09-02T06:47:42.788Z,21.50
2018-09-02T06:50:18.546Z,22.10
2018-09-02T06:52:54.325Z,23.20
2018-09-02T06:55:28.817Z,24.20
2018-09-02T06:58:04.615Z,25.00
2018-09-02T07:00:39.187Z,25.80
2018-09-02T07:03:14.727Z,26.40
2018-09-02T07:05:49.210Z,27.10
2018-09-02T07:08:23.702Z,27.60
2018-09-02T07:10:58.187Z,27.80
2018-09-02T07:13:32.630Z,28.10
2018-09-02T07:16:07.711Z,28.60
2018-09-02T07:18:42.189Z,28.70
2018-09-02T07:21:16.666Z,28.90
2018-09-02T07:23:51.132Z,29.10
2018-09-02T07:26:25.595Z,29.40
2018-09-02T07:29:00.053Z,29.80
2018-09-02T07:31:34.639Z,29.90
2018-09-02T07:34:10.319Z,29.90
2018-09-02T07:36:45.974Z,30.30
2018-09-02T07:39:20.471Z,30.20
2018-09-02T07:41:54.984Z,30.00
2018-09-02T07:44:30.585Z,30.30
2018-09-02T07:47:06.088Z,29.70
2018-09-02T07:49:40.602Z,28.80
2018-09-02T07:52:15.042Z,27.80
2018-09-02T07:54:50.529Z,26.40
2018-09-02T07:57:25.003Z,25.50
2018-09-02T07:59:59.508Z,26.10
2018-09-02T08:02:34.990Z,26.80
2018-09-02T08:05:09.811Z,27.60
2018-09-02T08:07:44.293Z,28.60
2018-09-02T08:10:18.803Z,29.20
2018-09-02T08:12:53.310Z,29.20
2018-09-02T08:15:28.998Z,29.20
2018-09-02T08:18:03.476Z,27.90
2018-09-02T08:20:38.963Z,26.30
2018-09-02T08:23:13.556Z,24.90
2018-09-02T08:25:48.196Z,24.60
2018-09-02T08:28:23.787Z,24.20
2018-09-02T08:30:58.585Z,23.60
2018-09-02T08:33:33.324Z,23.00
2018-09-02T08:36:08.086Z,22.50
2018-09-02T08:38:42.890Z,22.20
2018-09-02T08:41:17.669Z,22.80
2018-09-02T08:43:52.418Z,23.20
2018-09-02T08:46:27.203Z,23.00
2018-09-02T08:49:01.989Z,22.70
2018-09-02T08:51:37.807Z,22.20
2018-09-02T08:54:12.547Z,21.70
2018-09-02T08:56:47.335Z,21.40
2018-09-02T08:59:22.124Z,21.30
2018-09-02T09:01:56.890Z,21.50
2018-09-02T09:04:31.652Z,22.80
2018-09-02T09:07:06.491Z,24.40
2018-09-02T09:09:41.268Z,25.70
2018-09-02T09:12:15.800Z,26.00
2018-09-02T09:14:50.312Z,27.10
2018-09-02T09:17:24.785Z,27.10
2018-09-02T09:19:59.277Z,26.20
2018-09-02T09:22:33.813Z,25.20
2018-09-02T09:25:09.967Z,24.50
2018-09-02T09:27:44.604Z,24.80
2018-09-02T09:30:19.117Z,24.40
2018-09-02T09:32:54.571Z,24.80
2018-09-02T09:35:30.043Z,25.60
2018-09-02T09:38:05.508Z,26.40
2018-09-02T09:40:41.068Z,27.10
2018-09-02T09:43:16.580Z,26.60
2018-09-02T09:45:51.083Z,25.70
2018-09-02T09:48:25.772Z,26.40
2018-09-02T09:51:01.192Z,27.00
2018-09-02T09:53:35.654Z,27.10
2018-09-02T09:56:10.133Z,27.60
2018-09-02T09:58:44.612Z,28.10
2018-09-02T10:01:20.098Z,27.30
2018-09-02T10:03:54.590Z,26.60
2018-09-02T10:06:29.081Z,26.60
2018-09-02T10:09:04.649Z,27.10
2018-09-02T10:11:40.181Z,27.50
2018-09-02T10:14:14.690Z,27.30
2018-09-02T10:16:49.218Z,26.80
2018-09-02T10:19:23.712Z,25.00
2018-09-02T10:21:58.221Z,24.90
2018-09-02T10:24:33.738Z,25.60
2018-09-02T10:27:09.275Z,26.70
2018-09-02T10:29:43.722Z,27.10
2018-09-02T10:32:18.186Z,26.70
2018-09-02T10:34:52.676Z,26.30
2018-09-02T10:37:27.163Z,25.50
2018-09-02T10:40:01.666Z,25.50
2018-09-02T10:42:36.160Z,25.80
2018-09-02T10:45:10.675Z,26.30
2018-09-02T10:47:45.152Z,26.60
2018-09-02T10:50:19.808Z,26.10
2018-09-02T10:52:54.284Z,25.50
2018-09-02T10:55:29.036Z,24.70
2018-09-02T10:58:03.773Z,23.90
2018-09-02T11:00:38.563Z,23.40
2018-09-02T11:03:14.343Z,23.30
2018-09-02T11:05:49.116Z,23.20
2018-09-02T11:08:23.893Z,23.40
2018-09-02T11:10:58.697Z,23.80
2018-09-02T11:13:33.618Z,24.20
2018-09-02T11:16:08.526Z,25.00
2018-09-02T11:18:43.339Z,24.90
2018-09-02T11:21:19.170Z,24.20
2018-09-02T11:23:53.932Z,24.00
2018-09-02T11:26:29.682Z,23.40
2018-09-02T11:29:04.532Z,23.40
2018-09-02T11:31:39.344Z,24.10
2018-09-02T11:34:14.140Z,24.50
2018-09-02T11:36:49.975Z,24.80
2018-09-02T11:39:24.772Z,24.70
2018-09-02T11:41:59.528Z,24.60
2018-09-02T11:44:34.299Z,24.30
2018-09-02T11:47:09.053Z,23.90
2018-09-02T11:49:43.826Z,23.60
2018-09-02T11:52:19.582Z,23.20
2018-09-02T11:54:54.338Z,23.00
2018-09-02T11:57:29.228Z,22.90
2018-09-02T12:00:04.046Z,22.80
2018-09-02T12:02:38.776Z,22.90
2018-09-02T12:05:13.580Z,22.90
2018-09-02T12:07:49.339Z,22.80
2018-09-02T12:10:24.112Z,22.70
2018-09-02T12:12:58.863Z,22.70
2018-09-02T12:15:34.714Z,22.50
2018-09-02T12:18:10.612Z,22.60
2018-09-02T12:20:45.424Z,22.50
2018-09-02T12:23:20.223Z,22.60
2018-09-02T12:25:54.991Z,22.60
2018-09-02T12:28:29.734Z,22.60
2018-09-02T12:31:05.516Z,22.70
2018-09-02T12:33:40.302Z,23.00
2018-09-02T12:36:15.048Z,23.50
2018-09-02T12:38:50.845Z,23.40
2018-09-02T12:41:26.650Z,23.40
2018-09-02T12:44:01.411Z,23.40
2018-09-02T12:46:36.167Z,23.40
2018-09-02T12:49:11.967Z,23.10
2018-09-02T12:51:46.815Z,23.10
2018-09-02T12:54:21.558Z,23.10
2018-09-02T12:56:56.331Z,23.10
2018-09-02T12:59:32.134Z,23.20
2018-09-02T13:02:06.950Z,23.10
2018-09-02T13:04:41.749Z,23.20
2018-09-02T13:07:16.534Z,23.30
2018-09-02T13:09:51.423Z,23.20
2018-09-02T13:12:26.252Z,23.30
2018-09-02T13:15:01.044Z,23.60
2018-09-02T13:17:35.851Z,24.10
2018-09-02T13:20:11.630Z,24.20
2018-09-02T13:22:46.343Z,24.40
2018-09-02T13:25:21.123Z,24.40
2018-09-02T13:27:55.885Z,24.60
2018-09-02T13:30:30.623Z,24.60
2018-09-02T13:33:05.415Z,24.20
2018-09-02T13:35:40.206Z,24.30
2018-09-02T13:38:15.971Z,24.20
2018-09-02T13:40:50.763Z,24.30
2018-09-02T13:43:25.930Z,24.20
2018-09-02T13:46:00.704Z,24.10
2018-09-02T13:48:35.510Z,23.90
2018-09-02T13:51:11.456Z,23.80
2018-09-02T13:53:46.219Z,23.90
2018-09-02T13:56:20.988Z,24.10
2018-09-02T13:58:55.832Z,24.20
2018-09-02T14:01:30.616Z,23.90
2018-09-02T14:04:05.408Z,23.90
2018-09-02T14:06:40.188Z,23.50
2018-09-02T14:09:15.971Z,23.50
2018-09-02T14:11:50.750Z,23.20
2018-09-02T14:14:26.493Z,23.00
2018-09-02T14:17:01.242Z,23.10
2018-09-02T14:19:35.986Z,23.30
2018-09-02T14:22:10.772Z,23.40
2018-09-02T14:24:45.604Z,23.60
2018-09-02T14:27:21.379Z,23.80
2018-09-02T14:29:56.214Z,24.00
2018-09-02T14:32:32.000Z,24.00
2018-09-02T14:35:06.799Z,23.90
2018-09-02T14:37:43.578Z,23.80
2018-09-02T14:40:18.353Z,24.00
2018-09-02T14:42:54.255Z,24.00
2018-09-02T14:45:30.068Z,24.10
2018-09-02T14:48:04.871Z,24.20
2018-09-02T14:50:39.644Z,24.00
2018-09-02T14:53:15.424Z,23.50
2018-09-02T14:55:50.164Z,23.40
2018-09-02T14:58:24.992Z,23.20
2018-09-02T15:00:59.823Z,23.20
2018-09-02T15:03:34.574Z,23.40
2018-09-02T15:06:09.402Z,23.40
2018-09-02T15:08:44.194Z,23.10
2018-09-02T15:11:18.965Z,23.10
2018-09-02T15:13:53.801Z,22.90
2018-09-02T15:16:28.627Z,22.80
2018-09-02T15:19:03.384Z,22.70
2018-09-02T15:21:38.251Z,22.70
2018-09-02T15:24:13.067Z,22.80
2018-09-02T15:26:47.786Z,22.80
2018-09-02T15:29:22.575Z,23.00
2018-09-02T15:31:57.362Z,23.10
2018-09-02T15:34:33.191Z,23.20
2018-09-02T15:37:08.041Z,23.00
2018-09-02T15:39:42.891Z,22.60
2018-09-02T15:42:18.637Z,22.50
2018-09-02T15:44:53.501Z,22.40
2018-09-02T15:47:28.274Z,22.30
2018-09-02T15:50:03.059Z,22.40
2018-09-02T15:52:37.881Z,22.40
2018-09-02T15:55:13.691Z,22.50
2018-09-02T15:57:48.791Z,22.60
2018-09-02T16:00:24.536Z,22.50
2018-09-02T16:02:59.324Z,22.50
2018-09-02T16:05:34.104Z,22.30
2018-09-02T16:08:08.925Z,22.20
2018-09-02T16:10:43.853Z,22.30
2018-09-02T16:13:19.655Z,22.20
2018-09-02T16:15:54.398Z,22.10
2018-09-02T16:18:29.203Z,22.10
2018-09-02T16:21:03.975Z,22.00
2018-09-02T16:23:38.748Z,21.90
2018-09-02T16:26:13.779Z,21.90
2018-09-02T16:28:49.563Z,21.90
2018-09-02T16:31:25.328Z,21.90
2018-09-02T16:34:00.132Z,21.90
2018-09-02T16:36:35.896Z,21.90
2018-09-02T16:39:11.480Z,21.80
2018-09-02T16:41:46.236Z,21.70
2018-09-02T16:44:21.019Z,21.70
2018-09-02T16:46:55.793Z,21.50
2018-09-02T16:49:31.639Z,21.50
2018-09-02T16:52:06.408Z,21.40
2018-09-02T16:54:41.163Z,21.30
2018-09-02T16:57:15.922Z,21.30
2018-09-02T16:59:50.683Z,21.20
2018-09-02T17:02:25.525Z,21.10
2018-09-02T17:05:04.779Z,21.10
2018-09-02T17:07:39.551Z,21.00
2018-09-02T17:10:14.356Z,21.00
2018-09-02T17:12:49.368Z,21.00
2018-09-02T17:15:24.366Z,20.90
2018-09-02T17:17:59.207Z,20.90
2018-09-02T17:20:38.460Z,20.80
2018-09-02T17:23:14.283Z,20.70
2018-09-02T17:25:50.102Z,20.70
2018-09-02T17:28:25.029Z,20.70
2018-09-02T17:30:59.820Z,20.60
2018-09-02T17:33:34.623Z,20.60
2018-09-02T17:36:09.588Z,20.50
2018-09-02T17:38:45.361Z,20.30
2018-09-02T17:41:20.172Z,20.30
2018-09-02T17:43:54.942Z,20.10
2018-09-02T17:46:29.767Z,20.10
2018-09-02T17:49:04.558Z,20.00
2018-09-02T17:51:39.567Z,20.00
2018-09-02T17:54:14.352Z,19.90
2018-09-02T17:56:50.553Z,19.90
2018-09-02T17:59:25.328Z,19.80
2018-09-02T18:02:00.158Z,19.70
2018-09-02T18:04:34.959Z,19.70
2018-09-02T18:07:09.744Z,19.60
2018-09-02T18:09:44.506Z,19.50
2018-09-02T18:12:19.299Z,19.50
2018-09-02T18:14:54.086Z,19.50
2018-09-02T18:17:29.875Z,19.40
2018-09-02T18:20:04.776Z,19.30
2018-09-02T18:22:39.560Z,19.20
2018-09-02T18:25:14.352Z,19.20
2018-09-02T18:27:53.252Z,19.10
2018-09-02T18:30:28.004Z,19.00
2018-09-02T18:33:02.823Z,19.00
2018-09-02T18:35:37.564Z,18.90
2018-09-02T18:38:12.348Z,18.80
2018-09-02T18:40:48.168Z,18.80
2018-09-02T18:43:22.971Z,18.70
2018-09-02T18:45:57.732Z,18.70
2018-09-02T18:48:32.509Z,18.60
2018-09-02T18:51:07.313Z,18.60
2018-09-02T18:53:42.077Z,18.60
2018-09-02T18:56:16.864Z,18.50
2018-09-02T18:58:52.773Z,18.40
2018-09-02T19:01:27.525Z,18.30
2018-09-02T19:04:03.527Z,18.20
2018-09-02T19:06:38.299Z,18.20
2018-09-02T19:09:13.049Z,18.20
2018-09-02T19:11:48.934Z,18.00
2018-09-02T19:14:23.980Z,18.00
2018-09-02T19:16:58.757Z,17.90
2018-09-02T19:19:33.558Z,17.80
2018-09-02T19:22:10.093Z,17.70
2018-09-02T19:24:44.863Z,17.70
2018-09-02T19:27:19.686Z,17.60
2018-09-02T19:29:54.564Z,17.60
2018-09-02T19:32:29.503Z,17.60
2018-09-02T19:35:05.847Z,17.60
2018-09-02T19:37:40.613Z,17.60
2018-09-02T19:40:15.407Z,17.50
2018-09-02T19:42:50.148Z,17.50
2018-09-02T19:45:24.902Z,17.50
2018-09-02T19:47:59.632Z,17.50
2018-09-02T19:50:34.353Z,17.50
2018-09-02T19:53:09.116Z,17.50
2018-09-02T19:55:43.881Z,17.40
2018-09-02T19:58:18.622Z,17.40
2018-09-02T20:00:54.380Z,17.50
2018-09-02T20:03:29.120Z,17.50
2018-09-02T20:06:03.880Z,17.50
2018-09-02T20:08:38.642Z,17.50
2018-09-02T20:11:14.391Z,17.50
2018-09-02T20:13:49.190Z,17.40
2018-09-02T20:16:24.963Z,17.40
2018-09-02T20:18:59.786Z,17.40
2018-09-02T20:21:35.039Z,17.40
2018-09-02T20:24:09.802Z,17.30
2018-09-02T20:26:45.597Z,17.30
2018-09-02T20:29:20.351Z,17.20
2018-09-02T20:31:55.125Z,17.10
2018-09-02T20:34:29.870Z,17.10
2018-09-02T20:37:04.680Z,17.10
2018-09-02T20:39:39.448Z,17.10
2018-09-02T20:42:15.220Z,17.10
2018-09-02T20:44:49.977Z,17.10
2018-09-02T20:47:24.715Z,17.00
2018-09-02T20:49:59.536Z,17.00
2018-09-02T20:52:34.355Z,17.00
2018-09-02T20:55:10.171Z,17.00
2018-09-02T20:57:44.940Z,17.00
2018-09-02T21:00:19.743Z,16.90
2018-09-02T21:02:55.539Z,16.90
2018-09-02T21:05:30.472Z,17.00
2018-09-02T21:08:06.344Z,17.00
2018-09-02T21:10:41.083Z,17.00
2018-09-02T21:13:15.868Z,16.90
2018-09-02T21:15:50.704Z,17.00
2018-09-02T21:18:25.495Z,16.90
2018-09-02T21:21:01.286Z,16.90
2018-09-02T21:23:37.057Z,16.90
2018-09-02T21:26:12.848Z,16.80
2018-09-02T21:28:47.679Z,16.90
2018-09-02T21:31:22.587Z,16.80
2018-09-02T21:33:58.422Z,16.80
2018-09-02T21:36:33.182Z,16.80
2018-09-02T21:39:08.984Z,16.80
2018-09-02T21:41:43.778Z,16.80
2018-09-02T21:44:18.583Z,16.80
2018-09-02T21:46:53.419Z,16.80
2018-09-02T21:49:28.167Z,16.80
2018-09-02T21:52:02.944Z,16.70
2018-09-02T21:54:37.763Z,16.70
2018-09-02T21:57:13.563Z,16.70
2018-09-02T21:59:48.435Z,16.80
2018-09-02T22:02:23.232Z,16.80
2018-09-02T22:05:00.077Z,16.80
2018-09-02T22:07:34.885Z,16.80
2018-09-02T22:10:09.865Z,16.80
2018-09-02T22:12:44.614Z,16.90
2018-09-02T22:15:19.389Z,16.90
2018-09-02T22:17:55.264Z,16.90
2018-09-02T22:20:30.008Z,16.80
2018-09-02T22:23:04.799Z,16.80
2018-09-02T22:25:39.676Z,16.80
2018-09-02T22:28:14.632Z,16.80
2018-09-02T22:30:50.421Z,16.80
2018-09-02T22:33:26.233Z,16.70
2018-09-02T22:36:00.983Z,16.70
2018-09-02T22:38:35.874Z,16.70
2018-09-02T22:41:12.028Z,16.70
2018-09-02T22:43:46.942Z,16.80
2018-09-02T22:46:22.775Z,16.80
2018-09-02T22:48:57.516Z,16.80
2018-09-02T22:51:32.306Z,16.80
2018-09-02T22:54:07.096Z,16.80
2018-09-02T22:56:42.931Z,16.90
2018-09-02T22:59:17.755Z,16.90
2018-09-02T23:01:52.518Z,16.90
2018-09-02T23:04:27.279Z,16.90
2018-09-02T23:07:02.061Z,16.90
2018-09-02T23:09:36.854Z,16.90
2018-09-02T23:12:11.676Z,17.00
2018-09-02T23:14:47.399Z,17.00
2018-09-02T23:17:22.183Z,17.00
2018-09-02T23:19:57.032Z,17.10
2018-09-02T23:22:32.792Z,17.10
2018-09-02T23:25:07.590Z,17.10
2018-09-02T23:27:42.397Z,17.10
2018-09-02T23:30:17.162Z,17.20
2018-09-02T23:32:52.895Z,17.20
2018-09-02T23:35:27.667Z,17.20
2018-09-02T23:38:02.417Z,17.10
2018-09-02T23:40:37.173Z,17.20
2018-09-02T23:43:12.949Z,17.20
2018-09-02T23:45:47.985Z,17.20
2018-09-02T23:48:22.755Z,17.20
2018-09-02T23:50:57.508Z,17.30
2018-09-02T23:53:32.288Z,17.30
2018-09-02T23:56:07.780Z,17.30
2018-09-02T23:58:42.563Z,17.30
